Time;durP1;ratioP1;P1;durP2;ratioP2;P2;SDS_P1;SDS_P2;PMS_P1;PMS_P2;Temp;Humidity;BMP_temperature;BMP_pressure;BME280_temperature;BME280_humidity;BME280_pressure;Samples;Min_cycle;Max_cycle;Signal;HPM_P1;HPM_P2
2022/12/09 04:00:55;;;;;;;1.17;1.17;;;1.30;76.00;;;;;;5846140;23;20554;-79
2022/12/09 04:03:21;;;;;;;1.20;1.20;;;1.30;76.10;;;;;;4993733;28;20453;-79
2022/12/09 04:05:48;;;;;;;1.07;1.07;;;1.30;76.40;;;;;;4993680;28;20479;-79
2022/12/09 04:08:15;;;;;;;1.00;1.00;;;1.30;76.20;;;;;;4993546;28;20481;-79
2022/12/09 04:10:42;;;;;;;0.90;0.90;;;1.30;76.30;;;;;;4993623;28;20504;-79
2022/12/09 04:13:08;;;;;;;0.80;0.80;;;1.30;76.30;;;;;;4993577;28;20456;-79
2022/12/09 04:15:35;;;;;;;0.90;0.90;;;1.30;76.30;;;;;;4994197;28;20449;-79
2022/12/09 04:18:03;;;;;;;1.00;1.00;;;1.30;76.30;;;;;;4993273;28;20454;-79
2022/12/09 04:20:30;;;;;;;1.10;1.10;;;1.30;76.30;;;;;;4993475;28;20441;-79
2022/12/09 04:22:56;;;;;;;1.10;1.10;;;1.30;76.20;;;;;;4993502;28;20476;-79
2022/12/09 04:25:23;;;;;;;0.90;0.90;;;1.40;76.30;;;;;;4993463;28;20449;-79
2022/12/09 04:27:50;;;;;;;0.97;0.97;;;1.40;76.20;;;;;;4993212;28;20996;-79
2022/12/09 04:30:17;;;;;;;0.97;0.97;;;1.40;76.00;;;;;;4993049;28;20985;-79
2022/12/09 04:32:44;;;;;;;0.90;0.90;;;1.40;76.00;;;;;;4995876;28;20469;-79
2022/12/09 04:35:12;;;;;;;1.07;1.07;;;1.40;76.10;;;;;;4996759;28;20980;-79
2022/12/09 04:37:39;;;;;;;0.83;0.83;;;1.40;76.00;;;;;;4997015;28;20466;-79
2022/12/09 04:40:06;;;;;;;0.90;0.90;;;1.30;76.30;;;;;;4996935;28;20445;-79
2022/12/09 04:42:33;;;;;;;0.87;0.87;;;1.30;76.70;;;;;;4996887;28;20484;-79
2022/12/09 04:45:00;;;;;;;1.30;1.30;;;1.30;76.80;;;;;;4996887;28;20445;-79
2022/12/09 04:47:26;;;;;;;1.10;1.10;;;1.30;77.10;;;;;;4996437;28;20973;-79
2022/12/09 04:49:53;;;;;;;1.23;0.90;;;1.40;76.90;;;;;;4996680;28;20485;-79
2022/12/09 04:52:21;;;;;;;0.90;0.90;;;1.40;76.60;;;;;;4996666;28;20469;-79
2022/12/09 04:54:49;;;;;;;1.07;1.07;;;1.40;76.70;;;;;;4996692;28;20450;-79
2022/12/09 04:57:16;;;;;;;1.00;1.00;;;1.40;76.70;;;;;;4996372;28;20873;-79
2022/12/09 04:59:42;;;;;;;0.90;0.90;;;1.50;76.50;;;;;;4996600;28;20450;-79
2022/12/09 05:02:09;;;;;;;1.00;1.00;;;1.50;76.50;;;;;;4996154;28;20477;-79
2022/12/09 05:04:36;;;;;;;1.00;1.00;;;1.50;76.50;;;;;;4996157;28;20800;-79
2022/12/09 05:07:02;;;;;;;0.90;0.90;;;1.60;76.30;;;;;;4996230;28;20982;-79
2022/12/09 05:09:30;;;;;;;1.30;1.20;;;1.60;76.50;;;;;;4996340;28;20481;-79
2022/12/09 05:11:57;;;;;;;0.90;0.90;;;1.50;76.60;;;;;;4996043;28;20472;-79
2022/12/09 05:14:24;;;;;;;0.90;0.90;;;1.60;76.90;;;;;;4996290;28;20457;-79
2022/12/09 05:16:51;;;;;;;0.90;0.90;;;1.60;76.70;;;;;;4996376;28;20456;-79
2022/12/09 05:19:18;;;;;;;1.00;1.00;;;1.60;76.50;;;;;;4996250;28;20456;-79
2022/12/09 05:21:45;;;;;;;0.90;0.90;;;1.60;76.70;;;;;;4995902;28;20476;-79
2022/12/09 05:24:12;;;;;;;1.20;1.20;;;1.60;76.90;;;;;;4996251;28;20465;-79
2022/12/09 05:26:40;;;;;;;1.20;1.20;;;1.60;76.90;;;;;;4996292;28;20449;-79
2022/12/09 05:29:06;;;;;;;1.20;1.20;;;1.60;77.00;;;;;;4996323;28;20480;-79
2022/12/09 05:31:33;;;;;;;0.90;0.90;;;1.60;76.80;;;;;;4996440;28;20484;-79
2022/12/09 05:34:00;;;;;;;0.80;0.80;;;1.60;76.70;;;;;;4995977;28;20456;-79
2022/12/09 05:36:27;;;;;;;1.10;1.10;;;1.60;76.80;;;;;;4996001;28;20445;-79
2022/12/09 05:38:54;;;;;;;1.00;1.00;;;1.70;76.80;;;;;;4995581;28;21037;-79
2022/12/09 05:41:21;;;;;;;1.00;1.00;;;1.70;76.90;;;;;;4995887;28;20470;-79
2022/12/09 05:43:50;;;;;;;1.00;1.00;;;1.70;77.00;;;;;;4994987;28;20865;-79
2022/12/09 05:46:17;;;;;;;1.00;1.00;;;1.70;76.60;;;;;;4995751;28;20446;-78
2022/12/09 05:48:44;;;;;;;0.80;0.80;;;1.70;76.70;;;;;;4995577;28;20483;-78
2022/12/09 05:51:14;;;;;;;1.00;1.00;;;1.70;76.60;;;;;;4995610;28;20478;-78
2022/12/09 05:53:40;;;;;;;1.10;1.10;;;1.70;76.60;;;;;;4995594;28;20551;-77
2022/12/09 05:56:07;;;;;;;1.00;1.00;;;1.70;76.70;;;;;;4995501;28;20457;-78
2022/12/09 05:58:34;;;;;;;1.10;1.10;;;1.70;76.60;;;;;;4995481;28;20912;-78
2022/12/09 06:01:05;;;;;;;1.40;1.40;;;1.70;76.50;;;;;;4995151;28;20485;-78
2022/12/09 06:03:32;;;;;;;1.03;0.93;;;1.80;76.40;;;;;;4995101;28;20477;-79
2022/12/09 06:05:58;;;;;;;0.87;0.87;;;1.80;76.50;;;;;;4996120;28;20449;-79
2022/12/09 06:08:25;;;;;;;1.23;1.13;;;1.80;76.30;;;;;;4995459;28;20842;-79
2022/12/09 06:10:52;;;;;;;1.00;1.00;;;1.80;76.50;;;;;;4995962;28;20489;-79
2022/12/09 06:13:19;;;;;;;1.20;1.20;;;1.80;76.40;;;;;;4996238;28;20969;-79
2022/12/09 06:15:45;;;;;;;0.90;0.90;;;1.80;76.30;;;;;;4996405;28;20453;-80
2022/12/09 06:18:13;;;;;;;1.00;1.00;;;1.80;76.20;;;;;;4996562;28;20449;-79
2022/12/09 06:20:41;;;;;;;1.10;1.10;;;1.90;76.10;;;;;;4996144;28;20973;-79
2022/12/09 06:23:07;;;;;;;0.90;0.90;;;1.90;76.00;;;;;;4995918;28;20456;-78
2022/12/09 06:25:34;;;;;;;0.90;0.90;;;1.90;75.90;;;;;;4995127;28;20547;-79
2022/12/09 06:28:01;;;;;;;1.00;1.00;;;1.90;76.00;;;;;;4995928;28;20930;-80
2022/12/09 06:30:28;;;;;;;1.00;1.00;;;1.90;76.40;;;;;;4996061;28;20850;-81
2022/12/09 06:32:54;;;;;;;0.93;0.93;;;1.90;76.40;;;;;;4998710;28;20454;-81
2022/12/09 06:35:22;;;;;;;0.97;0.97;;;1.90;76.10;;;;;;4996612;28;20458;-79
2022/12/09 06:37:52;;;;;;;1.00;1.00;;;2.00;76.10;;;;;;4995743;28;20449;-79
2022/12/09 06:40:20;;;;;;;1.00;1.00;;;2.00;76.00;;;;;;4997927;28;20477;-80
2022/12/09 06:42:49;;;;;;;1.73;0.97;;;2.00;76.00;;;;;;4998981;28;20556;-80
2022/12/09 06:45:15;;;;;;;0.97;0.97;;;2.00;75.90;;;;;;4998948;28;20465;-80
2022/12/09 06:47:42;;;;;;;0.90;0.90;;;2.00;76.10;;;;;;4996077;28;20455;-79
2022/12/09 06:50:09;;;;;;;1.00;1.00;;;2.00;76.10;;;;;;4994876;28;20480;-79
2022/12/09 06:52:39;;;;;;;0.90;0.90;;;2.10;75.80;;;;;;4995544;28;20496;-80
2022/12/09 06:55:06;;;;;;;1.00;1.00;;;2.10;75.50;;;;;;4995085;28;20476;-78
2022/12/09 06:57:33;;;;;;;1.30;1.30;;;2.10;75.30;;;;;;4995757;28;20943;-78
2022/12/09 07:00:01;;;;;;;0.87;0.87;;;2.10;75.00;;;;;;4995671;28;20449;-79
2022/12/09 07:02:27;;;;;;;1.00;1.00;;;2.20;75.00;;;;;;4994241;28;20526;-76
2022/12/09 07:04:55;;;;;;;0.90;0.90;;;2.20;75.10;;;;;;4995455;28;20458;-79
2022/12/09 07:07:22;;;;;;;0.90;0.90;;;2.30;75.10;;;;;;4994142;28;20456;-78
2022/12/09 07:09:51;;;;;;;1.13;1.13;;;2.30;75.00;;;;;;4994516;28;20484;-78
2022/12/09 07:12:18;;;;;;;1.07;1.07;;;2.30;74.60;;;;;;4994752;28;20827;-78
2022/12/09 07:14:45;;;;;;;0.87;0.87;;;2.40;74.30;;;;;;4994408;28;20969;-78
2022/12/09 07:17:15;;;;;;;1.40;1.07;;;2.40;74.50;;;;;;4994221;28;20456;-77
2022/12/09 07:19:42;;;;;;;1.00;1.00;;;2.40;74.40;;;;;;4993866;28;20934;-78
2022/12/09 07:22:08;;;;;;;0.90;0.90;;;2.40;74.30;;;;;;4994096;28;20476;-78
2022/12/09 07:24:36;;;;;;;1.10;1.10;;;2.50;74.30;;;;;;4994289;28;20452;-79
2022/12/09 07:27:06;;;;;;;1.17;1.17;;;2.50;74.20;;;;;;4995968;28;20460;-78
2022/12/09 07:29:33;;;;;;;1.10;1.10;;;2.50;74.40;;;;;;4997947;28;20541;-80
2022/12/09 07:32:00;;;;;;;1.23;1.23;;;2.60;74.10;;;;;;4998719;28;20475;-81
2022/12/09 07:34:26;;;;;;;1.00;1.00;;;2.60;73.70;;;;;;4996144;28;20445;-80
2022/12/09 07:36:53;;;;;;;1.10;1.10;;;2.60;73.80;;;;;;4996389;28;20457;-80
2022/12/09 07:39:21;;;;;;;0.90;0.90;;;2.70;74.00;;;;;;4996730;28;20456;-79
2022/12/09 07:41:52;;;;;;;1.20;1.20;;;2.70;74.10;;;;;;4996656;28;20466;-74
2022/12/09 07:44:20;;;;;;;1.27;1.27;;;2.70;73.90;;;;;;4995373;28;20794;-79
2022/12/09 07:46:47;;;;;;;1.30;1.30;;;2.80;73.60;;;;;;4998625;28;20457;-79
2022/12/09 07:49:14;;;;;;;0.90;0.90;;;2.70;73.80;;;;;;5006189;28;20854;-78
2022/12/09 07:51:41;;;;;;;0.80;0.80;;;2.80;73.70;;;;;;4993692;28;20476;-77
2022/12/09 07:54:11;;;;;;;1.20;1.20;;;2.80;73.70;;;;;;4993849;28;20459;-78
2022/12/09 07:56:38;;;;;;;0.97;0.97;;;2.80;73.90;;;;;;4995997;28;20476;-80
2022/12/09 07:59:06;;;;;;;1.10;1.10;;;2.90;73.80;;;;;;4995823;28;20445;-80
2022/12/09 08:01:35;;;;;;;1.10;1.10;;;3.00;73.70;;;;;;4995432;28;20489;-80
2022/12/09 08:04:04;;;;;;;1.10;1.10;;;3.00;73.80;;;;;;4995185;28;20468;-79
2022/12/09 08:06:31;;;;;;;1.10;1.10;;;3.00;73.40;;;;;;4995637;28;20823;-80
2022/12/09 08:08:58;;;;;;;1.00;1.00;;;3.10;73.40;;;;;;4999091;28;20456;-80
2022/12/09 08:11:27;;;;;;;1.00;1.00;;;3.10;73.40;;;;;;4998442;28;20902;-80
2022/12/09 08:13:56;;;;;;;1.03;1.03;;;3.20;73.00;;;;;;4998815;28;20445;-80
2022/12/09 08:16:23;;;;;;;1.23;1.23;;;3.30;73.10;;;;;;4999678;28;20476;-80
2022/12/09 08:18:52;;;;;;;1.10;1.10;;;3.30;73.30;;;;;;4999848;28;20456;-80
2022/12/09 08:21:21;;;;;;;1.17;1.17;;;3.40;73.20;;;;;;5000154;28;20457;-80
2022/12/09 08:23:48;;;;;;;0.97;0.97;;;3.40;72.90;;;;;;4998903;28;20453;-80
2022/12/09 08:26:16;;;;;;;1.10;1.10;;;3.50;72.50;;;;;;4998761;28;20461;-80
2022/12/09 08:28:43;;;;;;;1.00;1.00;;;3.50;72.30;;;;;;4998725;28;20467;-80
2022/12/09 08:31:12;;;;;;;1.23;1.23;;;3.60;72.70;;;;;;4999071;28;20851;-80
2022/12/09 08:33:40;;;;;;;1.00;1.00;;;3.70;73.00;;;;;;5000754;28;20507;-80
2022/12/09 08:36:11;;;;;;;1.13;1.13;;;3.70;73.10;;;;;;4999440;28;20507;-80
2022/12/09 08:38:38;;;;;;;1.27;1.27;;;3.80;72.70;;;;;;4999672;28;20465;-80
2022/12/09 08:41:09;;;;;;;1.20;1.20;;;3.80;72.20;;;;;;5000004;28;20476;-80
2022/12/09 08:43:36;;;;;;;1.63;1.63;;;3.90;72.20;;;;;;4999445;28;20433;-80
2022/12/09 08:46:03;;;;;;;1.30;1.30;;;3.90;71.90;;;;;;4999641;28;20802;-80
2022/12/09 08:48:29;;;;;;;1.13;1.13;;;4.00;71.90;;;;;;4999703;28;20449;-80
2022/12/09 08:50:56;;;;;;;1.00;1.00;;;4.00;72.00;;;;;;4999271;28;20869;-80
2022/12/09 08:53:25;;;;;;;1.03;1.03;;;4.00;72.20;;;;;;4999384;28;20449;-80
2022/12/09 08:55:51;;;;;;;1.30;1.30;;;4.00;72.30;;;;;;5006173;28;20954;-80
2022/12/09 08:58:18;;;;;;;1.13;1.13;;;4.00;71.90;;;;;;5013496;28;20449;-80
2022/12/09 09:00:45;;;;;;;1.03;1.03;;;4.00;71.70;;;;;;5013558;28;20473;-81
2022/12/09 09:03:11;;;;;;;1.43;1.20;;;4.00;71.70;;;;;;5013640;28;20449;-80
2022/12/09 09:05:38;;;;;;;1.20;1.20;;;4.00;72.10;;;;;;5013539;28;20573;-80
2022/12/09 09:08:05;;;;;;;1.10;1.10;;;4.00;72.30;;;;;;5014250;28;20442;-80
2022/12/09 09:10:33;;;;;;;1.40;1.40;;;3.90;72.40;;;;;;5015471;28;20485;-80
2022/12/09 09:12:59;;;;;;;1.33;1.33;;;3.80;73.00;;;;;;5015694;28;20461;-80
2022/12/09 09:15:26;;;;;;;1.53;1.40;;;3.80;72.60;;;;;;5014657;28;20446;-80
2022/12/09 09:17:53;;;;;;;1.00;1.00;;;3.60;73.40;;;;;;5014621;28;20452;-81
2022/12/09 09:20:20;;;;;;;1.10;1.10;;;3.60;73.30;;;;;;5015019;28;20449;-81
2022/12/09 09:22:46;;;;;;;1.77;1.50;;;3.50;73.60;;;;;;5015670;28;20445;-80
2022/12/09 09:25:13;;;;;;;1.67;1.57;;;3.40;74.20;;;;;;5015324;28;20444;-80
2022/12/09 09:27:41;;;;;;;1.30;1.20;;;3.50;74.20;;;;;;5015510;28;20441;-80
2022/12/09 09:30:09;;;;;;;1.10;1.10;;;3.40;74.20;;;;;;5015249;28;20567;-80
2022/12/09 09:32:35;;;;;;;2.93;2.73;;;3.20;74.40;;;;;;5014968;28;20469;-80
2022/12/09 09:35:02;;;;;;;1.67;1.57;;;3.20;75.20;;;;;;5015313;28;20477;-80
2022/12/09 09:37:30;;;;;;;1.93;1.30;;;3.20;75.30;;;;;;5014728;28;20449;-81
2022/12/09 09:39:57;;;;;;;1.27;1.27;;;3.30;75.00;;;;;;5015784;28;20429;-81
2022/12/09 09:42:29;;;;;;;1.80;1.17;;;3.40;74.60;;;;;;5012836;28;20472;-80
2022/12/09 09:44:58;;;;;;;1.27;1.10;;;3.30;74.50;;;;;;5005161;28;20434;-80
2022/12/09 09:47:32;;;;;;;0.90;0.90;;;3.40;75.10;;;;;;5004469;28;20449;-80
2022/12/09 09:50:03;;;;;;;1.07;1.07;;;3.50;74.70;;;;;;5003460;28;20814;-80
2022/12/09 09:52:31;;;;;;;1.47;1.47;;;3.40;74.60;;;;;;5002596;28;20461;-80
2022/12/09 09:54:58;;;;;;;1.20;1.20;;;3.50;74.40;;;;;;5002120;28;20450;-80
2022/12/09 09:57:32;;;;;;;1.20;1.20;;;3.60;74.70;;;;;;5002332;28;20496;-81
2022/12/09 10:00:07;;;;;;;1.17;1.17;;;3.60;74.80;;;;;;5000594;28;20441;-80
2022/12/09 10:02:50;;;;;;;1.33;1.33;;;3.80;74.40;;;;;;5004328;28;20477;-80
2022/12/09 10:05:23;;;;;;;1.03;1.03;;;3.80;74.50;;;;;;5013254;28;20444;-80
2022/12/09 10:07:53;;;;;;;1.00;1.00;;;3.80;74.00;;;;;;5010757;28;20489;-80
2022/12/09 10:10:37;;;;;;;1.43;1.43;;;3.80;74.10;;;;;;5011262;28;20481;-80
2022/12/09 10:13:19;;;;;;;1.23;1.23;;;3.80;74.10;;;;;;5014944;28;20442;-80
2022/12/09 10:15:58;;;;;;;1.43;1.43;;;3.90;73.70;;;;;;5041592;23;20510;-80
2022/12/09 10:18:31;;;;;;;1.20;1.20;;;3.80;73.80;;;;;;5001526;28;20433;-80
2022/12/09 10:20:58;;;;;;;1.43;1.43;;;3.90;73.90;;;;;;5000862;28;20429;-80
2022/12/09 10:23:28;;;;;;;1.60;1.60;;;3.80;74.40;;;;;;5001107;28;20449;-80
2022/12/09 10:25:59;;;;;;;1.20;1.20;;;3.90;74.20;;;;;;5001660;28;20480;-80
2022/12/09 10:28:30;;;;;;;1.03;1.03;;;3.90;74.00;;;;;;5000806;28;20435;-82
2022/12/09 10:30:58;;;;;;;0.97;0.97;;;3.80;74.20;;;;;;5000617;28;20974;-80
2022/12/09 10:33:28;;;;;;;1.40;1.40;;;3.80;74.20;;;;;;5000752;28;20997;-80
2022/12/09 10:35:55;;;;;;;1.10;1.10;;;3.80;74.20;;;;;;5000604;28;20469;-80
2022/12/09 10:38:23;;;;;;;1.60;1.60;;;3.90;73.90;;;;;;4999767;28;20449;-80
2022/12/09 10:41:01;;;;;;;1.43;1.43;;;4.00;73.90;;;;;;5000575;28;20449;-80
2022/12/09 10:43:40;;;;;;;1.23;1.23;;;4.10;74.10;;;;;;5001368;28;20437;-80
2022/12/09 10:46:11;;;;;;;1.70;1.67;;;4.10;73.90;;;;;;5000965;28;20465;-80
2022/12/09 10:48:42;;;;;;;1.23;1.23;;;4.10;73.90;;;;;;5001318;28;20445;-81
2022/12/09 10:51:13;;;;;;;1.13;1.13;;;4.00;73.40;;;;;;5005071;28;20476;-80
2022/12/09 10:53:46;;;;;;;1.77;1.67;;;4.10;73.30;;;;;;5001694;28;20429;-80
2022/12/09 10:56:19;;;;;;;1.20;1.20;;;4.10;73.40;;;;;;5001430;28;20434;-80
2022/12/09 10:58:46;;;;;;;1.47;1.47;;;4.10;73.70;;;;;;5000967;28;20445;-80
2022/12/09 11:01:15;;;;;;;1.30;1.30;;;4.10;73.90;;;;;;5000473;28;20452;-80
2022/12/09 11:03:50;;;;;;;1.23;1.23;;;4.20;73.70;;;;;;5000805;28;20861;-79
2022/12/09 11:06:25;;;;;;;1.27;1.27;;;4.20;73.60;;;;;;5001335;28;20440;-80
2022/12/09 11:08:54;;;;;;;1.30;1.20;;;4.20;73.20;;;;;;5001480;28;20460;-80
2022/12/09 11:11:37;;;;;;;1.30;1.30;;;4.20;73.60;;;;;;5001936;28;20512;-79
2022/12/09 11:14:04;;;;;;;1.43;1.33;;;4.20;73.50;;;;;;5001549;28;20440;-80
2022/12/09 11:16:32;;;;;;;1.43;1.43;;;4.20;73.50;;;;;;5001488;28;20441;-80
2022/12/09 11:18:58;;;;;;;1.50;1.50;;;4.20;73.40;;;;;;5001590;28;20445;-80
2022/12/09 11:21:32;;;;;;;1.40;1.40;;;4.20;73.50;;;;;;5001562;28;20445;-80
2022/12/09 11:23:59;;;;;;;1.40;1.40;;;4.20;73.30;;;;;;5001047;28;20445;-80
2022/12/09 11:26:31;;;;;;;1.40;1.40;;;4.20;73.40;;;;;;5001221;28;20449;-80
2022/12/09 11:29:04;;;;;;;1.10;1.10;;;4.30;73.70;;;;;;5001199;28;20433;-80
2022/12/09 11:31:37;;;;;;;1.20;1.20;;;4.20;73.90;;;;;;5001147;28;20864;-80
2022/12/09 11:34:13;;;;;;;1.50;1.50;;;4.20;74.20;;;;;;5000445;28;20426;-80
2022/12/09 11:36:46;;;;;;;1.50;1.50;;;4.20;74.40;;;;;;5000007;28;20437;-80
2022/12/09 11:39:28;;;;;;;1.63;1.63;;;4.20;73.90;;;;;;5000173;28;20437;-80
2022/12/09 11:42:16;;;;;;;1.53;1.53;;;4.10;74.40;;;;;;5000074;28;20453;-80
2022/12/09 11:44:52;;;;;;;1.60;1.33;;;4.20;74.20;;;;;;5000052;28;20524;-80
2022/12/09 11:47:30;;;;;;;1.40;1.40;;;4.20;74.60;;;;;;4999942;28;20440;-80
2022/12/09 11:50:12;;;;;;;1.43;1.43;;;4.30;74.30;;;;;;5000474;28;20434;-80
2022/12/09 11:52:38;;;;;;;1.20;1.20;;;4.30;74.30;;;;;;5001069;28;20445;-80
2022/12/09 11:55:17;;;;;;;1.70;1.70;;;4.20;73.90;;;;;;5001040;28;20462;-80
2022/12/09 11:57:49;;;;;;;1.63;1.63;;;4.20;74.30;;;;;;5001182;28;20434;-80
2022/12/09 12:00:22;;;;;;;1.53;1.53;;;4.30;74.20;;;;;;5000164;28;20504;-80
2022/12/09 12:02:59;;;;;;;1.30;1.30;;;4.30;74.30;;;;;;4999533;28;20453;-80
2022/12/09 12:05:29;;;;;;;1.20;1.20;;;4.20;74.40;;;;;;4999298;28;20469;-80
2022/12/09 12:08:05;;;;;;;1.30;1.30;;;4.20;74.70;;;;;;4999934;28;20441;-80
2022/12/09 12:10:35;;;;;;;1.70;1.70;;;4.20;74.60;;;;;;4999861;28;20465;-80
2022/12/09 12:13:10;;;;;;;1.47;1.47;;;4.20;74.60;;;;;;4999622;28;20437;-80
2022/12/09 12:15:44;;;;;;;1.57;1.57;;;4.20;74.70;;;;;;4999710;28;20485;-80
2022/12/09 12:18:19;;;;;;;1.37;1.37;;;4.20;74.60;;;;;;5000324;28;20437;-80
2022/12/09 12:21:19;;;;;;;1.30;1.30;;;4.30;74.40;;;;;;5007946;28;20435;-79
2022/12/09 12:24:12;;;;;;;1.80;1.70;;;4.20;74.50;;;;;;5007337;28;20433;-80
2022/12/09 12:26:46;;;;;;;1.17;1.17;;;4.20;74.50;;;;;;5006144;28;20441;-80
2022/12/09 12:29:25;;;;;;;1.43;1.33;;;4.10;74.70;;;;;;5006638;28;20439;-80
2022/12/09 12:32:07;;;;;;;1.53;1.43;;;4.10;74.70;;;;;;5006641;28;20477;-80
2022/12/09 12:34:44;;;;;;;1.77;1.77;;;4.10;75.30;;;;;;5006970;28;20473;-79
2022/12/09 12:37:27;;;;;;;1.53;1.53;;;4.00;75.20;;;;;;5006872;28;20437;-80
2022/12/09 12:40:02;;;;;;;1.40;1.40;;;3.90;75.40;;;;;;5006365;28;20432;-80
2022/12/09 12:42:40;;;;;;;1.60;1.60;;;4.00;75.50;;;;;;5007020;28;20425;-80
2022/12/09 12:48:05;;;;;;;1.50;1.50;;;4.00;75.20;;;;;;4998987;28;20401;-80
2022/12/09 12:50:46;;;;;;;1.73;1.73;;;3.90;75.40;;;;;;4998946;28;20469;-80
2022/12/09 12:53:26;;;;;;;1.50;1.50;;;3.90;75.90;;;;;;5000646;28;20487;-80
2022/12/09 12:55:59;;;;;;;1.40;1.40;;;3.80;76.40;;;;;;5002615;28;20476;-80
2022/12/09 12:58:55;;;;;;;1.57;1.57;;;3.80;76.60;;;;;;5002765;28;20438;-80
2022/12/09 13:01:28;;;;;;;1.43;1.43;;;3.80;76.70;;;;;;5002223;28;20856;-80
2022/12/09 13:04:03;;;;;;;1.50;1.50;;;3.80;76.70;;;;;;5001700;28;20469;-80
2022/12/09 13:06:40;;;;;;;1.40;1.40;;;3.80;76.90;;;;;;5002863;28;20440;-80
2022/12/09 13:09:14;;;;;;;1.30;1.30;;;3.90;76.50;;;;;;5002500;28;20441;-80
2022/12/09 13:11:53;;;;;;;1.57;1.57;;;4.00;76.20;;;;;;5002525;28;20823;-80
2022/12/09 13:14:24;;;;;;;1.33;1.33;;;4.00;76.20;;;;;;5004670;28;20499;-80
2022/12/09 13:16:53;;;;;;;1.40;1.40;;;3.90;76.10;;;;;;5002885;28;20827;-80
2022/12/09 13:19:23;;;;;;;1.50;1.50;;;3.90;76.60;;;;;;5002689;28;20453;-80
2022/12/09 13:21:52;;;;;;;1.67;1.67;;;3.90;77.00;;;;;;5002160;28;20445;-80
2022/12/09 13:24:26;;;;;;;1.47;1.47;;;4.00;76.60;;;;;;5001127;28;20469;-80
2022/12/09 13:26:59;;;;;;;1.50;1.50;;;4.00;76.60;;;;;;5001314;28;20456;-80
2022/12/09 13:29:37;;;;;;;1.30;1.30;;;3.90;76.80;;;;;;5001819;28;20433;-80
2022/12/09 13:32:30;;;;;;;1.70;1.60;;;3.80;77.40;;;;;;5001558;28;20519;-80
2022/12/09 13:35:05;;;;;;;1.57;1.57;;;3.90;77.10;;;;;;5001534;28;20591;-80
2022/12/09 13:37:54;;;;;;;1.60;1.60;;;3.90;77.10;;;;;;5001546;28;20448;-80
2022/12/09 13:40:30;;;;;;;1.50;1.50;;;3.90;76.80;;;;;;5000838;28;20911;-80
2022/12/09 13:43:06;;;;;;;1.50;1.50;;;3.50;77.70;;;;;;5001739;28;20832;-80
2022/12/09 13:45:35;;;;;;;1.50;1.50;;;3.50;78.40;;;;;;5001862;28;20982;-78
2022/12/09 13:48:26;;;;;;;1.50;1.50;;;3.60;78.50;;;;;;4999447;28;20454;-79
2022/12/09 13:50:56;;;;;;;1.60;1.60;;;3.70;78.10;;;;;;5007160;28;20445;-79
2022/12/09 13:53:29;;;;;;;1.90;1.90;;;3.60;78.90;;;;;;5007392;28;20813;-79
2022/12/09 13:55:58;;;;;;;1.40;1.40;;;3.70;78.90;;;;;;5005740;28;20477;-80
2022/12/09 13:58:56;;;;;;;1.50;1.50;;;3.70;79.10;;;;;;5007262;28;20454;-80
2022/12/09 14:01:28;;;;;;;1.40;1.40;;;3.50;79.70;;;;;;5004585;28;20433;-79
2022/12/09 14:04:08;;;;;;;1.50;1.50;;;3.60;79.90;;;;;;5006052;28;20533;-80
2022/12/09 14:06:40;;;;;;;1.53;1.53;;;3.70;79.80;;;;;;5005932;28;20509;-79
2022/12/09 14:09:24;;;;;;;1.43;1.43;;;3.80;79.60;;;;;;5007828;28;20436;-80
2022/12/09 14:11:53;;;;;;;1.50;1.50;;;3.90;79.70;;;;;;5007166;28;20497;-80
2022/12/09 14:14:53;;;;;;;1.30;1.30;;;3.90;79.90;;;;;;5003704;28;20479;-79
2022/12/09 14:18:05;;;;;;;1.60;1.60;;;3.90;80.20;;;;;;5003140;28;20430;-79
2022/12/09 14:20:40;;;;;;;1.70;1.70;;;4.00;80.10;;;;;;5008197;28;20422;-79
2022/12/09 14:23:18;;;;;;;1.60;1.60;;;4.00;80.20;;;;;;5006380;28;20429;-79
2022/12/09 14:26:04;;;;;;;1.90;1.90;;;4.00;80.40;;;;;;5005961;28;20464;-78
2022/12/09 14:28:55;;;;;;;1.63;1.63;;;3.90;80.90;;;;;;5008097;28;20441;-79
2022/12/09 14:31:58;;;;;;;1.77;1.77;;;4.00;80.70;;;;;;5007650;28;20556;-80
2022/12/09 14:34:34;;;;;;;1.80;1.80;;;4.00;80.40;;;;;;5008033;28;20484;-79
2022/12/09 14:37:11;;;;;;;1.50;1.50;;;4.00;80.60;;;;;;5007499;28;20453;-80
2022/12/09 14:39:45;;;;;;;1.87;1.87;;;4.00;80.90;;;;;;5008279;28;20907;-79
2022/12/09 14:42:27;;;;;;;1.53;1.53;;;4.00;80.90;;;;;;5009208;28;20425;-79
2022/12/09 14:45:00;;;;;;;1.50;1.50;;;4.00;81.10;;;;;;5008433;28;20549;-80
2022/12/09 14:47:30;;;;;;;2.03;1.93;;;4.00;80.90;;;;;;5007055;28;20448;-78
2022/12/09 14:50:06;;;;;;;1.40;1.40;;;4.00;81.30;;;;;;5005066;28;20450;-80
2022/12/09 14:52:34;;;;;;;1.70;1.70;;;3.90;81.70;;;;;;5004346;28;20476;-78
2022/12/09 14:55:04;;;;;;;1.40;1.40;;;3.90;81.70;;;;;;5005040;28;20473;-79
2022/12/09 14:57:37;;;;;;;1.90;1.80;;;3.90;81.90;;;;;;5005357;28;20444;-78
2022/12/09 15:00:05;;;;;;;1.50;1.50;;;3.80;81.60;;;;;;5004271;28;20449;-79
2022/12/09 15:02:32;;;;;;;1.60;1.60;;;3.80;82.50;;;;;;5003528;28;20454;-78
2022/12/09 15:05:01;;;;;;;1.53;1.53;;;3.90;82.10;;;;;;5003042;28;20481;-79
2022/12/09 15:07:30;;;;;;;1.77;1.77;;;3.90;81.90;;;;;;5004365;28;20512;-78
2022/12/09 15:09:58;;;;;;;1.60;1.60;;;4.00;81.90;;;;;;5004938;28;20464;-78
2022/12/09 15:12:30;;;;;;;1.67;1.67;;;4.00;82.00;;;;;;5006828;28;20560;-80
2022/12/09 15:15:05;;;;;;;1.77;1.77;;;4.00;82.10;;;;;;5007984;28;20480;-79
2022/12/09 15:17:38;;;;;;;1.70;1.70;;;4.00;82.00;;;;;;5006660;28;20440;-79
2022/12/09 15:20:06;;;;;;;1.63;1.63;;;4.00;81.80;;;;;;5005903;28;20434;-79
2022/12/09 15:22:33;;;;;;;1.80;1.80;;;4.00;82.10;;;;;;5004070;28;20536;-80
2022/12/09 15:25:01;;;;;;;1.90;1.80;;;4.00;82.10;;;;;;5004399;28;20897;-79
2022/12/09 15:27:30;;;;;;;1.80;1.80;;;3.90;82.10;;;;;;5006783;28;20485;-79
2022/12/09 15:29:58;;;;;;;2.20;2.20;;;3.80;82.80;;;;;;5007294;28;20489;-78
2022/12/09 15:32:27;;;;;;;1.50;1.50;;;3.80;83.00;;;;;;5007624;28;20568;-79
2022/12/09 15:34:55;;;;;;;1.97;1.87;;;3.90;82.80;;;;;;5007984;28;20469;-78
2022/12/09 15:37:27;;;;;;;1.60;1.50;;;3.90;82.80;;;;;;5005208;28;20500;-80
2022/12/09 15:39:59;;;;;;;1.57;1.57;;;3.90;82.70;;;;;;5003035;28;20460;-79
2022/12/09 15:42:29;;;;;;;1.97;1.97;;;3.90;82.80;;;;;;5002538;28;20425;-77
2022/12/09 15:45:02;;;;;;;1.80;1.80;;;4.00;82.80;;;;;;5002461;28;20475;-77
2022/12/09 15:47:33;;;;;;;1.90;1.90;;;4.00;82.80;;;;;;5003950;28;20453;-77
2022/12/09 15:50:03;;;;;;;1.90;1.90;;;4.00;82.80;;;;;;5002366;28;20798;-78
2022/12/09 15:52:40;;;;;;;2.20;2.20;;;4.00;82.60;;;;;;4993920;28;20520;-77
2022/12/09 15:55:11;;;;;;;1.97;1.97;;;4.00;82.50;;;;;;4994123;28;20473;-77
2022/12/09 15:57:39;;;;;;;2.00;1.90;;;4.10;82.40;;;;;;4993525;28;20433;-77
2022/12/09 16:00:08;;;;;;;1.70;1.70;;;4.10;82.50;;;;;;4993413;28;20950;-77
2022/12/09 16:02:39;;;;;;;2.13;2.13;;;4.10;82.70;;;;;;4993701;28;20533;-77
2022/12/09 16:05:08;;;;;;;2.40;2.30;;;4.10;82.60;;;;;;4993385;28;20986;-77
2022/12/09 16:07:36;;;;;;;2.30;2.30;;;4.10;82.70;;;;;;4993691;28;20453;-77
2022/12/09 16:10:07;;;;;;;1.67;1.67;;;4.10;82.80;;;;;;4993953;28;20863;-77
2022/12/09 16:12:34;;;;;;;2.00;1.90;;;4.10;82.60;;;;;;4993599;28;20485;-78
2022/12/09 16:15:01;;;;;;;2.10;2.10;;;4.00;82.60;;;;;;4994032;28;20856;-78
2022/12/09 16:17:32;;;;;;;2.17;2.17;;;4.00;83.00;;;;;;4993298;28;20977;-78
2022/12/09 16:19:59;;;;;;;1.90;1.90;;;4.00;83.00;;;;;;4993607;28;20434;-78
2022/12/09 16:22:28;;;;;;;2.07;2.07;;;3.90;83.40;;;;;;4993320;28;20980;-78
2022/12/09 16:25:00;;;;;;;2.07;1.97;;;4.00;83.40;;;;;;4993714;28;20500;-78
2022/12/09 16:27:30;;;;;;;2.07;2.07;;;4.00;83.40;;;;;;4995610;28;20433;-78
2022/12/09 16:30:02;;;;;;;1.87;1.87;;;4.00;83.30;;;;;;4997234;28;20429;-78
2022/12/09 16:32:33;;;;;;;1.97;1.97;;;4.00;83.10;;;;;;4997206;28;20465;-78
2022/12/09 16:35:15;;;;;;;2.67;2.53;;;4.00;83.10;;;;;;4997122;28;20841;-78
2022/12/09 16:37:56;;;;;;;2.10;2.00;;;3.90;83.50;;;;;;4996954;28;20436;-78
2022/12/09 16:41:10;;;;;;;1.93;1.93;;;3.90;83.70;;;;;;4997156;28;20437;-78
2022/12/09 16:43:53;;;;;;;2.30;2.27;;;3.90;83.60;;;;;;4997029;28;20441;-78
2022/12/09 16:46:40;;;;;;;2.10;2.10;;;3.90;83.60;;;;;;4997109;28;20448;-78
2022/12/09 16:49:09;;;;;;;1.77;1.77;;;4.00;83.50;;;;;;4996926;28;20426;-78
2022/12/09 16:51:37;;;;;;;2.10;2.10;;;4.00;83.40;;;;;;4996751;28;20441;-78
2022/12/09 16:54:13;;;;;;;2.00;2.00;;;4.00;83.50;;;;;;4996887;28;20481;-79
2022/12/09 16:56:39;;;;;;;2.37;2.27;;;4.10;83.40;;;;;;4997102;28;20524;-78
2022/12/09 16:59:06;;;;;;;2.13;2.13;;;4.00;83.40;;;;;;4996394;28;20449;-78
2022/12/09 17:01:38;;;;;;;1.80;1.80;;;4.00;83.70;;;;;;4996766;28;20449;-77
2022/12/09 17:04:14;;;;;;;2.20;2.20;;;4.00;83.60;;;;;;4996591;28;20491;-79
2022/12/09 17:06:41;;;;;;;2.47;2.37;;;4.00;83.70;;;;;;4996729;28;20437;-79
2022/12/09 17:09:07;;;;;;;2.43;2.43;;;4.10;83.60;;;;;;4996573;28;20462;-78
2022/12/09 17:11:34;;;;;;;2.20;2.20;;;4.10;83.40;;;;;;4996524;28;20449;-78
2022/12/09 17:14:01;;;;;;;2.20;2.20;;;4.10;83.40;;;;;;4996206;28;20445;-78
2022/12/09 17:16:28;;;;;;;2.80;2.70;;;4.10;83.50;;;;;;4996461;28;20441;-79
2022/12/09 17:18:54;;;;;;;2.53;2.43;;;4.10;83.60;;;;;;4996408;28;20508;-78
2022/12/09 17:21:22;;;;;;;2.03;2.03;;;4.10;83.30;;;;;;4996495;28;20449;-76